Time;durP1;ratioP1;P1;durP2;ratioP2;P2;SDS_P1;SDS_P2;PMS_P1;PMS_P2;Temp;Humidity;BMP_temperature;BMP_pressure;BME280_temperature;BME280_humidity;BME280_pressure;Samples;Min_cycle;Max_cycle;Signal;HPM_P1;HPM_P2
2023/11/03 00:00:12;;;;;;;1.10;1.10;;;;;;;13.65;90.63;96248.75;4987405;28;20049;-66
2023/11/03 00:02:39;;;;;;;1.10;1.10;;;;;;;13.75;90.49;96232.38;5005022;28;20054;-66
2023/11/03 00:05:12;;;;;;;1.10;1.10;;;;;;;13.81;90.39;96241.84;5005319;28;20057;-66
2023/11/03 00:07:40;;;;;;;1.00;1.00;;;;;;;13.91;90.29;96238.19;4987616;28;20120;-66
2023/11/03 00:10:11;;;;;;;1.00;1.00;;;;;;;13.96;89.38;96221.06;4987051;28;20049;-65
2023/11/03 00:12:38;;;;;;;1.20;1.20;;;;;;;13.86;89.55;96210.78;5005221;28;20421;-65
2023/11/03 00:15:06;;;;;;;1.00;1.00;;;;;;;13.93;89.31;96213.50;5004361;28;20096;-66
2023/11/03 00:17:33;;;;;;;1.20;1.20;;;;;;;13.75;87.60;96165.56;5005395;28;20049;-66
2023/11/03 00:20:00;;;;;;;1.10;1.10;;;;;;;13.88;88.42;96205.59;5005059;28;20077;-66
2023/11/03 00:22:28;;;;;;;1.20;1.20;;;;;;;13.75;88.29;96173.91;5004318;28;20058;-66
2023/11/03 00:24:55;;;;;;;1.20;1.20;;;;;;;13.86;88.72;96205.22;5004719;28;20057;-66
2023/11/03 00:27:23;;;;;;;1.30;1.30;;;;;;;13.87;88.69;96206.78;5005114;28;20069;-66
2023/11/03 00:29:51;;;;;;;1.15;1.15;;;;;;;13.96;88.50;96215.47;4987327;28;20085;-66
2023/11/03 00:32:18;;;;;;;1.10;1.10;;;;;;;13.70;88.28;96191.84;5004902;28;20050;-66
2023/11/03 00:34:46;;;;;;;1.20;1.20;;;;;;;13.84;88.74;96219.56;5004561;28;20100;-66
2023/11/03 00:37:13;;;;;;;1.17;1.17;;;;;;;14.00;87.60;96210.66;5004886;28;20069;-66
2023/11/03 00:39:40;;;;;;;1.25;1.25;;;;;;;14.06;87.53;96209.00;5004827;28;20440;-65
2023/11/03 00:42:07;;;;;;;1.00;1.00;;;;;;;14.11;87.41;96205.78;5005013;28;20503;-65
2023/11/03 00:44:34;;;;;;;1.10;1.10;;;;;;;14.06;87.43;96183.94;5003975;28;20073;-66
2023/11/03 00:47:01;;;;;;;1.20;1.20;;;;;;;13.86;88.96;96177.38;5004774;28;20077;-66
2023/11/03 00:49:27;;;;;;;1.10;1.10;;;;;;;13.64;90.47;96177.56;5004249;28;20575;-66
2023/11/03 00:51:54;;;;;;;1.10;1.10;;;;;;;13.87;89.26;96184.53;4986679;28;20054;-65
2023/11/03 00:54:22;;;;;;;1.10;1.10;;;;;;;13.40;88.37;96145.19;5004493;28;20054;-66
2023/11/03 00:56:49;;;;;;;1.10;1.10;;;;;;;13.53;88.15;96160.19;5004593;28;20551;-66
2023/11/03 00:59:16;;;;;;;1.20;1.20;;;;;;;13.42;89.13;96165.03;5004201;28;20054;-66
2023/11/03 01:01:45;;;;;;;1.20;1.20;;;;;;;13.83;88.54;96206.03;5004150;28;20054;-66
2023/11/03 01:04:13;;;;;;;1.10;1.10;;;;;;;13.82;87.46;96201.66;5004341;28;20137;-65
2023/11/03 01:06:40;;;;;;;1.00;1.00;;;;;;;13.74;87.64;96191.81;5004258;28;20081;-66
2023/11/03 01:09:09;;;;;;;1.30;1.30;;;;;;;13.83;87.68;96206.03;5004508;28;20061;-66
2023/11/03 01:11:36;;;;;;;1.10;1.10;;;;;;;13.86;88.09;96216.34;5004292;28;20521;-67
2023/11/03 01:14:09;;;;;;;1.20;1.20;;;;;;;13.77;87.83;96218.84;5004106;28;20049;-66
2023/11/03 01:16:38;;;;;;;1.10;1.10;;;;;;;14.01;87.90;96251.22;5003918;28;20050;-65
2023/11/03 01:19:06;;;;;;;1.20;1.20;;;;;;;14.10;87.38;96254.31;4986363;28;20528;-66
2023/11/03 01:21:39;;;;;;;1.20;1.20;;;;;;;14.31;86.66;96242.97;4986545;28;20104;-66
2023/11/03 01:24:10;;;;;;;1.40;1.40;;;;;;;14.14;86.68;96205.75;5003765;28;20437;-66
2023/11/03 01:26:41;;;;;;;1.20;1.20;;;;;;;14.31;87.03;96254.13;5003896;28;20140;-66
2023/11/03 01:29:08;;;;;;;1.30;1.30;;;;;;;14.36;86.68;96246.13;5004023;28;20056;-66
2023/11/03 01:31:37;;;;;;;1.40;1.40;;;;;;;14.41;86.67;96253.25;5004111;28;20046;-66
2023/11/03 01:34:07;;;;;;;1.23;1.23;;;;;;;14.46;86.19;96234.06;5005841;28;20123;-66
2023/11/03 01:36:35;;;;;;;1.20;1.20;;;;;;;13.86;85.59;96155.91;5007586;28;20046;-66
2023/11/03 01:39:05;;;;;;;1.20;1.20;;;;;;;14.34;86.36;96247.72;5008304;28;20057;-65
2023/11/03 01:41:32;;;;;;;1.30;1.30;;;;;;;14.48;85.98;96244.81;5008093;28;20060;-65
2023/11/03 01:44:11;;;;;;;1.17;1.17;;;;;;;14.26;84.97;96196.06;5007833;28;20104;-65
2023/11/03 01:46:40;;;;;;;1.20;1.20;;;;;;;14.19;85.22;96218.41;5007571;28;20496;-66
2023/11/03 01:49:08;;;;;;;1.20;1.20;;;;;;;14.35;84.91;96213.09;4990603;28;20140;-66
2023/11/03 01:51:37;;;;;;;1.30;1.30;;;;;;;14.54;85.27;96273.81;5007852;28;20081;-66
2023/11/03 01:54:05;;;;;;;1.30;1.30;;;;;;;14.52;85.93;96259.50;5007569;28;20132;-66
2023/11/03 01:56:35;;;;;;;1.17;1.17;;;;;;;14.44;85.98;96227.31;5007969;28;20116;-66
2023/11/03 01:59:05;;;;;;;1.20;1.20;;;;;;;14.40;86.08;96209.88;5007463;28;20053;-65
2023/11/03 02:01:34;;;;;;;1.20;1.20;;;;;;;14.44;86.01;96218.97;5006618;28;20084;-65
2023/11/03 02:04:01;;;;;;;1.40;1.40;;;;;;;14.36;86.17;96207.13;5007392;28;20064;-66
2023/11/03 02:06:28;;;;;;;1.30;1.30;;;;;;;14.49;86.35;96210.97;5007250;28;20057;-66
2023/11/03 02:08:55;;;;;;;1.10;1.10;;;;;;;14.48;86.58;96206.56;5007174;28;20073;-65
2023/11/03 02:11:31;;;;;;;1.20;1.20;;;;;;;14.38;86.85;96181.63;5007510;28;20088;-66
2023/11/03 02:13:59;;;;;;;1.10;1.10;;;;;;;14.45;87.56;96209.41;5007544;28;20050;-66
2023/11/03 02:16:25;;;;;;;1.20;1.20;;;;;;;14.60;87.08;96208.03;4989824;28;20137;-66
2023/11/03 02:18:52;;;;;;;1.50;1.50;;;;;;;14.13;87.11;96150.44;5007472;28;20168;-66
2023/11/03 02:21:19;;;;;;;1.20;1.20;;;;;;;14.49;87.70;96193.44;5007290;28;20084;-66
2023/11/03 02:23:46;;;;;;;1.20;1.20;;;;;;;14.60;87.27;96216.41;4989292;28;20057;-66
2023/11/03 02:26:12;;;;;;;1.27;1.27;;;;;;;14.30;87.62;96196.84;5005958;28;20104;-66
2023/11/03 02:28:39;;;;;;;1.40;1.40;;;;;;;14.41;88.01;96233.72;5005922;28;20050;-66
2023/11/03 02:31:06;;;;;;;1.30;1.30;;;;;;;14.51;88.04;96241.19;4987839;28;20057;-66
2023/11/03 02:33:33;;;;;;;1.10;1.10;;;;;;;14.41;87.89;96233.72;5005772;28;20054;-66
2023/11/03 02:36:00;;;;;;;1.20;1.20;;;;;;;14.44;88.18;96241.25;5005739;28;20046;-66
2023/11/03 02:38:26;;;;;;;1.30;1.30;;;;;;;14.44;87.84;96219.78;5005637;28;20053;-66
2023/11/03 02:40:54;;;;;;;1.10;1.10;;;;;;;14.46;87.38;96222.13;4987665;28;20496;-66
2023/11/03 02:43:22;;;;;;;1.10;1.10;;;;;;;14.31;88.57;96215.13;4998119;28;20081;-66
2023/11/03 02:45:52;;;;;;;1.20;1.20;;;;;;;14.30;88.92;96207.97;5025164;28;20472;-66
2023/11/03 02:48:19;;;;;;;1.30;1.30;;;;;;;14.24;88.96;96206.84;5007564;28;20512;-65
2023/11/03 02:50:46;;;;;;;1.20;1.20;;;;;;;14.32;88.41;96200.00;5007558;28;20053;-65
2023/11/03 02:53:13;;;;;;;1.30;1.30;;;;;;;14.24;89.25;96192.91;5024387;28;20056;-66
2023/11/03 02:55:40;;;;;;;1.27;1.27;;;;;;;14.24;89.56;96210.41;5007489;28;20542;-65
2023/11/03 02:58:07;;;;;;;1.20;1.20;;;;;;;14.32;90.03;96205.59;5024805;28;20132;-65
2023/11/03 03:00:35;;;;;;;1.17;1.17;;;;;;;14.31;89.60;96210.34;5007041;28;20140;-66
2023/11/03 03:03:06;;;;;;;1.23;1.23;;;;;;;14.35;90.04;96227.03;5007287;28;20065;-66
2023/11/03 03:05:34;;;;;;;1.13;1.13;;;;;;;14.22;88.98;96181.38;5024809;28;20057;-65
2023/11/03 03:08:04;;;;;;;1.20;1.20;;;;;;;14.10;88.66;96162.44;5024938;28;20281;-65
2023/11/03 03:10:32;;;;;;;1.20;1.20;;;;;;;14.57;89.08;96220.03;5024936;28;20170;-65
2023/11/03 03:13:02;;;;;;;1.10;1.10;;;;;;;14.55;88.50;96209.28;5024996;28;20068;-65
2023/11/03 03:15:29;;;;;;;1.30;1.30;;;;;;;14.19;88.82;96171.06;5024373;28;20049;-64
2023/11/03 03:17:55;;;;;;;1.30;1.30;;;;;;;14.39;89.24;96199.91;5023813;28;20053;-66
2023/11/03 03:20:23;;;;;;;1.13;1.13;;;;;;;14.36;89.40;96184.03;5024140;28;20152;-65
2023/11/03 03:22:49;;;;;;;1.20;1.20;;;;;;;13.76;89.42;96105.91;5024860;28;20049;-65
2023/11/03 03:25:16;;;;;;;1.10;1.10;;;;;;;14.33;89.84;96193.22;4961120;28;1316277;-62
2023/11/03 03:27:43;;;;;;;1.30;1.30;;;;;;;14.12;90.84;96168.34;5025657;28;20057;-65
2023/11/03 03:30:10;;;;;;;1.10;1.10;;;;;;;13.93;92.17;96160.59;5025315;28;20495;-66
2023/11/03 03:32:37;;;;;;;1.05;1.05;;;;;;;14.08;92.70;96182.34;5007941;28;20076;-66
2023/11/03 03:35:04;;;;;;;1.10;1.10;;;;;;;14.15;92.73;96184.22;5024909;28;20079;-66
2023/11/03 03:37:31;;;;;;;1.15;1.15;;;;;;;14.20;91.96;96164.28;5025308;28;20060;-66
2023/11/03 03:39:58;;;;;;;1.30;1.30;;;;;;;14.24;92.22;96165.84;5025504;28;20427;-65
2023/11/03 03:42:25;;;;;;;1.20;1.20;;;;;;;14.35;92.36;96165.75;5025132;28;20119;-66
2023/11/03 03:44:52;;;;;;;1.10;1.10;;;;;;;14.35;92.29;96155.38;5025257;28;20049;-66
2023/11/03 03:47:19;;;;;;;1.13;1.13;;;;;;;13.78;92.52;96064.53;5025425;28;20057;-66
2023/11/03 03:49:46;;;;;;;1.20;1.20;;;;;;;14.50;91.66;96150.41;5007598;28;20049;-65
2023/11/03 03:52:13;;;;;;;1.20;1.20;;;;;;;14.41;91.98;96130.63;5007737;28;20061;-66
2023/11/03 03:54:40;;;;;;;1.05;1.05;;;;;;;14.04;90.86;96061.03;5024701;28;20443;-65
2023/11/03 03:57:06;;;;;;;1.40;1.40;;;;;;;14.65;90.70;96135.88;5024532;28;20057;-66
2023/11/03 03:59:33;;;;;;;1.20;1.20;;;;;;;14.65;90.39;96135.09;5024906;28;20479;-66
2023/11/03 04:01:59;;;;;;;1.20;1.20;;;;;;;14.63;90.76;96160.63;5007567;28;20049;-66
2023/11/03 04:04:26;;;;;;;1.20;1.20;;;;;;;14.53;90.62;96166.31;5005252;28;20506;-66
2023/11/03 04:06:53;;;;;;;1.10;1.10;;;;;;;14.58;90.72;96166.66;5005262;28;20428;-66
2023/11/03 04:09:20;;;;;;;1.20;1.20;;;;;;;14.49;90.50;96165.56;5005383;28;20077;-65
2023/11/03 04:11:47;;;;;;;1.20;1.20;;;;;;;14.25;91.37;96152.72;5005382;28;20494;-65
2023/11/03 04:14:13;;;;;;;1.20;1.20;;;;;;;13.49;97.76;96141.94;4983175;28;20779;-65
2023/11/03 04:16:40;;;;;;;1.10;1.10;;;;;;;13.82;96.92;96146.00;5013877;28;20053;-66
2023/11/03 04:19:07;;;;;;;1.25;1.25;;;;;;;13.94;95.90;96162.97;5004831;28;20444;-66
2023/11/03 04:21:33;;;;;;;1.10;1.10;;;;;;;14.04;95.35;96144.56;5004862;28;20058;-65
2023/11/03 04:24:00;;;;;;;1.15;1.15;;;;;;;14.08;95.27;96145.34;5004769;28;20058;-66
2023/11/03 04:26:27;;;;;;;1.17;1.17;;;;;;;14.24;94.41;96142.75;5004535;28;20093;-65
2023/11/03 04:28:54;;;;;;;1.10;1.10;;;;;;;14.27;93.75;96120.47;5004918;28;20128;-65
2023/11/03 04:31:21;;;;;;;1.10;1.10;;;;;;;14.29;92.72;96108.91;5004659;28;20057;-66
2023/11/03 04:33:49;;;;;;;1.20;1.20;;;;;;;14.45;92.42;96136.94;4987019;28;20056;-66
2023/11/03 04:36:16;;;;;;;1.20;1.20;;;;;;;14.51;91.07;96118.56;5006052;28;20459;-65
2023/11/03 04:38:42;;;;;;;1.30;1.30;;;;;;;14.72;89.95;96129.41;5024215;28;20053;-66
2023/11/03 04:41:09;;;;;;;1.23;1.23;;;;;;;14.74;89.99;96122.22;5024326;28;20064;-66
2023/11/03 04:43:40;;;;;;;1.30;1.30;;;;;;;14.71;89.49;96111.94;5006762;28;20139;-65
2023/11/03 04:46:08;;;;;;;1.20;1.20;;;;;;;14.61;90.66;96104.50;5023456;28;20148;-65
2023/11/03 04:48:36;;;;;;;1.20;1.20;;;;;;;14.79;91.21;96107.03;5023903;28;20054;-65
2023/11/03 04:51:04;;;;;;;1.00;1.00;;;;;;;14.51;91.04;96074.00;5023954;28;20064;-65
2023/11/03 04:53:31;;;;;;;1.30;1.30;;;;;;;14.75;91.01;96117.44;5024024;28;20069;-66
2023/11/03 04:55:58;;;;;;;1.30;1.30;;;;;;;14.48;92.88;96102.69;5006085;28;20052;-68
2023/11/03 04:58:25;;;;;;;1.20;1.20;;;;;;;14.57;91.74;96094.59;5024258;28;20053;-68
2023/11/03 05:00:52;;;;;;;1.30;1.30;;;;;;;14.91;91.27;96125.97;5023916;28;20057;-68
2023/11/03 05:03:19;;;;;;;1.20;1.20;;;;;;;14.92;91.40;96128.34;5024391;28;20152;-70
2023/11/03 05:05:46;;;;;;;1.40;1.40;;;;;;;14.96;90.71;96117.13;5023632;28;20053;-69
2023/11/03 05:08:13;;;;;;;1.27;1.27;;;;;;;15.07;90.22;96129.72;5006048;28;20057;-68
2023/11/03 05:10:41;;;;;;;1.30;1.30;;;;;;;14.86;89.38;96090.19;5024044;28;20073;-69
2023/11/03 05:13:08;;;;;;;1.40;1.40;;;;;;;14.92;90.83;96138.72;5023757;28;20091;-69
2023/11/03 05:15:35;;;;;;;1.45;1.45;;;;;;;15.02;89.67;96154.47;5006111;28;20215;-68
2023/11/03 05:18:01;;;;;;;1.50;1.50;;;;;;;15.10;89.67;96167.91;5023653;28;20583;-69
2023/11/03 05:20:28;;;;;;;1.30;1.30;;;;;;;15.21;89.14;96167.75;5023515;28;20100;-69
2023/11/03 05:22:55;;;;;;;1.40;1.40;;;;;;;15.21;88.65;96151.00;5023312;28;20540;-69
2023/11/03 05:25:23;;;;;;;1.40;1.40;;;;;;;15.23;89.41;96154.19;5023390;28;20560;-69
2023/11/03 05:27:50;;;;;;;1.55;1.55;;;;;;;15.30;88.30;96153.28;5023671;28;20539;-70
2023/11/03 05:30:16;;;;;;;1.38;1.38;;;;;;;15.23;88.46;96143.03;5023403;28;20433;-68
2023/11/03 05:32:43;;;;;;;1.38;1.38;;;;;;;15.32;88.14;96167.59;5023234;28;20501;-69
2023/11/03 05:35:10;;;;;;;1.30;1.30;;;;;;;15.04;89.35;96157.66;5022707;28;20046;-69
2023/11/03 05:37:37;;;;;;;1.30;1.30;;;;;;;14.79;92.13;96162.78;5005648;28;20053;-69
2023/11/03 05:40:05;;;;;;;1.25;1.25;;;;;;;14.99;91.28;96155.31;5022477;28;20060;-67
2023/11/03 05:42:32;;;;;;;1.33;1.33;;;;;;;15.14;90.56;96201.34;5022799;28;20081;-68
2023/11/03 05:44:59;;;;;;;1.30;1.30;;;;;;;15.10;89.50;96126.06;5023082;28;20405;-69
2023/11/03 05:47:26;;;;;;;1.30;1.30;;;;;;;15.33;89.53;96158.81;5022998;28;20136;-68
2023/11/03 05:49:53;;;;;;;1.40;1.40;;;;;;;15.40;88.81;96153.13;5022247;28;20084;-68
2023/11/03 05:52:20;;;;;;;1.48;1.48;;;;;;;15.51;88.10;96147.38;5022280;28;20049;-68
2023/11/03 05:54:47;;;;;;;1.40;1.40;;;;;;;15.52;88.00;96141.38;5023658;28;20504;-68
2023/11/03 05:57:14;;;;;;;1.50;1.50;;;;;;;15.49;87.52;96122.66;5023520;28;20532;-68
2023/11/03 05:59:40;;;;;;;1.40;1.40;;;;;;;15.59;87.99;96132.88;5023771;28;20046;-67
2023/11/03 06:02:07;;;;;;;1.20;1.20;;;;;;;15.72;87.16;96142.22;5023423;28;20072;-68
2023/11/03 06:04:35;;;;;;;1.50;1.50;;;;;;;15.78;86.56;96151.69;5023142;28;20049;-68
2023/11/03 06:07:06;;;;;;;1.40;1.40;;;;;;;15.72;86.83;96136.66;5023317;28;20057;-69
2023/11/03 06:09:34;;;;;;;1.40;1.40;;;;;;;15.75;87.27;96130.22;5005773;28;20388;-67
2023/11/03 06:12:01;;;;;;;1.42;1.42;;;;;;;15.64;86.71;96114.84;5005885;28;20409;-67
2023/11/03 06:14:28;;;;;;;1.50;1.50;;;;;;;15.86;87.15;96133.59;5023396;28;20100;-66
2023/11/03 06:16:54;;;;;;;1.48;1.48;;;;;;;15.93;87.16;96150.22;5005324;28;20141;-69
2023/11/03 06:19:22;;;;;;;1.48;1.48;;;;;;;15.97;86.35;96153.75;5005401;28;20085;-68
2023/11/03 06:21:48;;;;;;;1.30;1.30;;;;;;;16.00;85.08;96164.06;5007393;28;20053;-69
2023/11/03 06:24:15;;;;;;;1.30;1.30;;;;;;;15.83;85.58;96128.88;5007080;28;20049;-67
2023/11/03 06:26:42;;;;;;;1.45;1.45;;;;;;;16.07;85.02;96136.00;5007035;28;20058;-68
2023/11/03 06:29:09;;;;;;;1.50;1.50;;;;;;;16.14;85.09;96130.25;5005724;28;20053;-69
2023/11/03 06:31:35;;;;;;;1.50;1.50;;;;;;;16.09;84.64;96099.25;5006626;28;20528;-68
2023/11/03 06:34:03;;;;;;;1.40;1.40;;;;;;;15.99;85.13;96130.97;5006618;28;20149;-67
2023/11/03 06:36:30;;;;;;;1.40;1.40;;;;;;;15.53;88.22;96129.00;4987243;28;20053;-69
2023/11/03 06:39:14;;;;;;;1.30;1.30;;;;;;;14.94;90.16;96072.13;4986472;28;20050;-68
2023/11/03 06:41:42;;;;;;;1.20;1.20;;;;;;;15.55;89.53;96115.41;4987525;28;20160;-69
2023/11/03 06:44:10;;;;;;;1.58;1.58;;;;;;;14.66;90.42;96041.91;4997999;28;20050;-64
2023/11/03 06:46:38;;;;;;;1.42;1.42;;;;;;;14.61;91.59;96039.59;5004081;28;20057;-69
2023/11/03 06:49:06;;;;;;;1.30;1.30;;;;;;;15.50;89.80;96129.84;4999827;28;20045;-62
2023/11/03 06:51:33;;;;;;;1.50;1.50;;;;;;;15.02;88.84;96015.03;5004816;28;20057;-64
2023/11/03 06:54:00;;;;;;;1.38;1.38;;;;;;;15.16;88.71;96025.94;5005406;28;20559;-63
2023/11/03 06:56:27;;;;;;;1.58;1.58;;;;;;;15.78;88.73;96112.59;5005332;28;20058;-62
2023/11/03 06:58:54;;;;;;;1.40;1.40;;;;;;;16.02;87.86;96094.59;5004065;28;20049;-64
2023/11/03 07:01:20;;;;;;;1.55;1.55;;;;;;;16.01;87.66;96042.72;5000043;28;20092;-62
2023/11/03 07:03:47;;;;;;;1.45;1.45;;;;;;;16.41;85.79;96089.00;5004805;28;20073;-61
2023/11/03 07:06:14;;;;;;;1.60;1.60;;;;;;;16.67;84.32;96118.03;4997806;28;20349;-68
2023/11/03 07:08:41;;;;;;;1.70;1.70;;;;;;;16.87;83.20;96104.00;4995475;28;20050;-63
2023/11/03 07:11:07;;;;;;;1.42;1.42;;;;;;;17.10;83.08;96103.88;4996345;28;20049;-60
2023/11/03 07:13:36;;;;;;;1.65;1.65;;;;;;;17.30;80.97;96149.38;5004716;28;20045;-63
2023/11/03 07:16:07;;;;;;;1.73;1.73;;;;;;;17.32;80.61;96102.16;4993016;28;20084;-60
2023/11/03 07:18:34;;;;;;;1.50;1.50;;;;;;;17.44;79.46;96105.06;5005195;28;20082;-66
2023/11/03 07:21:02;;;;;;;1.42;1.42;;;;;;;16.63;79.44;95977.50;5003422;28;20061;-63
2023/11/03 07:23:30;;;;;;;1.80;1.80;;;;;;;16.91;78.95;96029.19;4997531;28;20049;-63
2023/11/03 07:25:59;;;;;;;1.83;1.83;;;;;;;16.63;79.99;96020.25;5005095;28;20057;-59
2023/11/03 07:28:26;;;;;;;1.67;1.67;;;;;;;17.25;81.58;96119.91;5005714;28;20056;-62
2023/11/03 07:30:54;;;;;;;1.70;1.70;;;;;;;17.41;80.33;96119.91;5001087;28;20052;-69
2023/11/03 07:33:21;;;;;;;1.60;1.60;;;;;;;17.65;79.19;96104.53;5004626;28;20049;-64
2023/11/03 07:35:49;;;;;;;1.50;1.50;;;;;;;17.53;78.44;96063.22;5002602;28;20041;-62
2023/11/03 07:38:17;;;;;;;1.58;1.58;;;;;;;17.83;77.72;96076.06;5001247;28;20639;-62
2023/11/03 07:40:48;;;;;;;1.77;1.77;;;;;;;16.03;76.31;95828.00;4985695;28;20077;-61
2023/11/03 07:43:15;;;;;;;1.92;1.92;;;;;;;18.00;75.99;96046.78;4993890;28;20050;-62
2023/11/03 07:45:42;;;;;;;1.80;1.80;;;;;;;18.56;75.01;96090.03;5003698;28;20087;-61
2023/11/03 07:48:08;;;;;;;1.88;1.88;;;;;;;18.56;74.23;96092.81;5004765;28;20057;-63
2023/11/03 07:50:35;;;;;;;2.00;2.00;;;;;;;18.51;74.69;96081.38;5004726;28;20598;-61
2023/11/03 07:53:03;;;;;;;2.10;2.10;;;;;;;18.47;74.71;96063.84;5004698;28;20061;-60
2023/11/03 07:55:30;;;;;;;1.67;1.67;;;;;;;16.36;75.35;95793.25;5004600;28;20050;-63
2023/11/03 07:57:56;;;;;;;1.60;1.60;;;;;;;16.64;80.62;95996.63;4993619;28;20041;-65
2023/11/03 08:00:24;;;;;;;1.77;1.77;;;;;;;16.59;82.68;96055.91;4994722;28;20074;-65
2023/11/03 08:02:50;;;;;;;1.80;1.80;;;;;;;16.46;83.08;96013.03;5001648;28;20866;-62
2023/11/03 08:05:18;;;;;;;1.77;1.77;;;;;;;17.03;81.50;96036.88;5004588;28;20389;-66
2023/11/03 08:07:45;;;;;;;1.73;1.73;;;;;;;17.29;79.53;96049.84;5002574;28;20053;-67
2023/11/03 08:10:12;;;;;;;1.88;1.88;;;;;;;17.54;79.68;96092.03;4987193;28;20061;-57
2023/11/03 08:12:39;;;;;;;1.73;1.73;;;;;;;17.92;78.82;96074.19;4998172;28;20062;-61
2023/11/03 08:15:08;;;;;;;1.90;1.90;;;;;;;18.31;75.76;96078.72;5002329;28;20140;-62
2023/11/03 08:17:43;;;;;;;1.70;1.70;;;;;;;18.37;74.69;96059.34;5002720;28;20137;-66
2023/11/03 08:20:15;;;;;;;1.77;1.77;;;;;;;16.78;79.22;95991.94;4997650;28;20057;-65
2023/11/03 08:22:42;;;;;;;1.60;1.60;;;;;;;16.90;81.12;96039.59;4993576;28;20072;-62
2023/11/03 08:25:09;;;;;;;1.70;1.70;;;;;;;17.90;78.05;96064.66;5002673;28;20056;-62
2023/11/03 08:27:37;;;;;;;1.85;1.85;;;;;;;17.72;76.42;96011.13;5003946;28;20145;-65
2023/11/03 08:30:08;;;;;;;1.85;1.85;;;;;;;18.20;75.47;96058.59;5004099;28;20349;-66
2023/11/03 08:32:36;;;;;;;1.83;1.83;;;;;;;17.86;74.36;95991.13;5000293;28;20049;-61
2023/11/03 08:35:05;;;;;;;1.70;1.70;;;;;;;18.55;73.20;96066.03;4989723;28;20054;-64
2023/11/03 08:37:33;;;;;;;1.60;1.60;;;;;;;18.38;73.55;96050.50;4988654;28;20214;-64
2023/11/03 08:40:00;;;;;;;1.75;1.75;;;;;;;17.93;73.39;96018.94;5002136;28;20061;-65
2023/11/03 08:42:27;;;;;;;1.92;1.92;;;;;;;18.10;73.08;96018.44;5003601;28;20073;-65
2023/11/03 08:44:54;;;;;;;1.73;1.73;;;;;;;18.47;72.67;96098.31;4997158;28;20058;-59
2023/11/03 08:47:21;;;;;;;1.58;1.58;;;;;;;18.15;73.09;96075.97;4998583;28;20501;-64
2023/11/03 08:49:48;;;;;;;1.50;1.50;;;;;;;18.39;73.49;96068.91;5001776;28;20057;-59
2023/11/03 08:52:14;;;;;;;1.67;1.67;;;;;;;17.69;73.30;96021.19;5002156;28;20054;-69
2023/11/03 08:54:41;;;;;;;1.80;1.80;;;;;;;18.37;72.95;96048.88;5003082;28;20528;-71
2023/11/03 08:57:09;;;;;;;1.60;1.60;;;;;;;18.74;72.21;96028.56;5003352;28;20053;-67
2023/11/03 08:59:37;;;;;;;1.52;1.52;;;;;;;18.27;72.92;96015.56;5004061;28;20054;-60
2023/11/03 09:02:04;;;;;;;1.52;1.52;;;;;;;18.72;71.80;96036.63;5002711;28;20085;-62
2023/11/03 09:04:30;;;;;;;1.88;1.88;;;;;;;18.10;72.59;95958.78;5001857;28;20045;-70
2023/11/03 09:06:58;;;;;;;2.00;2.00;;;;;;;18.26;72.16;95969.91;5001981;28;20052;-62
2023/11/03 09:09:26;;;;;;;1.90;1.90;;;;;;;18.64;72.14;96026.88;5003079;28;20054;-61
2023/11/03 09:11:53;;;;;;;1.75;1.75;;;;;;;18.62;71.67;96029.31;5003787;28;20058;-66
2023/11/03 09:14:19;;;;;;;1.70;1.70;;;;;;;17.31;72.80;95865.44;5001962;28;20049;-60
2023/11/03 09:16:46;;;;;;;1.70;1.70;;;;;;;18.59;72.11;96122.78;5003732;28;20061;-62
2023/11/03 09:19:13;;;;;;;1.90;1.90;;;;;;;18.61;71.90;96035.38;5003546;28;20054;-66
2023/11/03 09:21:40;;;;;;;1.83;1.83;;;;;;;17.95;72.84;95960.44;5003688;28;20070;-61
2023/11/03 09:24:06;;;;;;;1.58;1.58;;;;;;;18.19;72.90;95995.38;5003168;28;20580;-60
2023/11/03 09:26:34;;;;;;;1.60;1.60;;;;;;;18.56;72.27;96017.09;5003064;28;20440;-60
2023/11/03 09:29:01;;;;;;;1.90;1.90;;;;;;;18.75;71.47;96018.91;5003535;28;20054;-61
2023/11/03 09:31:28;;;;;;;2.08;2.08;;;;;;;18.74;71.12;95985.69;5003885;28;20050;-61
2023/11/03 09:33:55;;;;;;;1.80;1.80;;;;;;;18.73;71.75;96003.75;5002151;28;20120;-60
2023/11/03 09:36:22;;;;;;;1.63;1.63;;;;;;;18.55;72.72;96004.31;5003714;28;20060;-60
2023/11/03 09:38:49;;;;;;;1.77;1.77;;;;;;;18.60;72.13;95984.13;5003284;28;20089;-60
2023/11/03 09:41:19;;;;;;;1.80;1.80;;;;;;;18.32;71.45;95906.44;5003453;28;20060;-59
2023/11/03 09:43:47;;;;;;;1.88;1.88;;;;;;;19.03;70.39;95981.50;5002175;28;20086;-71
2023/11/03 09:46:14;;;;;;;1.63;1.63;;;;;;;19.19;69.99;95980.59;5001864;28;20128;-59
2023/11/03 09:48:42;;;;;;;1.88;1.88;;;;;;;19.15;70.64;95980.72;5003485;28;20536;-70
2023/11/03 09:51:13;;;;;;;1.65;1.65;;;;;;;18.16;71.94;95923.38;5001791;28;20576;-71
2023/11/03 09:53:45;;;;;;;1.90;1.90;;;;;;;18.67;72.24;95972.66;5001559;28;20125;-59
2023/11/03 09:56:12;;;;;;;1.67;1.67;;;;;;;19.06;70.70;95960.19;5006448;28;20064;-71
2023/11/03 09:58:39;;;;;;;1.80;1.80;;;;;;;18.78;71.08;95902.97;5006575;28;20555;-70
2023/11/03 10:01:08;;;;;;;1.88;1.88;;;;;;;18.23;70.53;95875.50;5007553;28;20376;-70
2023/11/03 10:03:37;;;;;;;1.83;1.83;;;;;;;17.72;74.35;95908.25;5005995;28;20559;-69
2023/11/03 10:06:04;;;;;;;1.63;1.63;;;;;;;17.72;75.81;95907.50;5007047;28;20049;-71
2023/11/03 10:08:31;;;;;;;1.58;1.58;;;;;;;17.72;77.29;95963.53;5007211;28;20056;-59
2023/11/03 10:10:58;;;;;;;1.60;1.60;;;;;;;17.74;77.61;95966.63;5006796;28;20056;-60
2023/11/03 10:13:25;;;;;;;1.40;1.40;;;;;;;17.59;77.90;95955.03;5000191;28;20108;-67
2023/11/03 10:15:51;;;;;;;1.60;1.60;;;;;;;17.86;77.79;95957.50;5018505;28;20104;-71
2023/11/03 10:18:18;;;;;;;1.70;1.70;;;;;;;18.30;75.46;95953.00;5007033;28;20049;-59
2023/11/03 10:20:46;;;;;;;1.60;1.60;;;;;;;18.51;74.40;95953.13;5006587;28;20085;-61
2023/11/03 10:23:13;;;;;;;1.70;1.70;;;;;;;18.55;74.51;95945.41;5006924;28;20474;-59
2023/11/03 10:25:44;;;;;;;1.73;1.73;;;;;;;18.79;72.21;95889.72;5005011;28;20096;-61
2023/11/03 10:28:11;;;;;;;1.60;1.60;;;;;;;18.46;73.58;95934.09;5005252;28;20328;-62
2023/11/03 10:30:38;;;;;;;1.80;1.80;;;;;;;18.39;74.12;95934.28;5006635;28;20113;-58
2023/11/03 10:33:06;;;;;;;1.65;1.65;;;;;;;18.14;75.59;95928.63;5006386;28;20505;-71
2023/11/03 10:35:33;;;;;;;1.60;1.60;;;;;;;18.48;73.83;95919.63;5006470;28;20054;-70
2023/11/03 10:38:01;;;;;;;1.90;1.90;;;;;;;18.70;72.84;95910.03;5004986;28;20576;-70
2023/11/03 10:40:28;;;;;;;1.63;1.63;;;;;;;18.48;73.58;95931.59;5004944;28;20516;-70
2023/11/03 10:42:57;;;;;;;1.70;1.70;;;;;;;17.89;76.24;95942.63;5006437;28;20056;-60
2023/11/03 10:45:30;;;;;;;1.77;1.77;;;;;;;18.26;73.82;95885.81;5005783;28;20060;-59
2023/11/03 10:48:17;;;;;;;1.80;1.80;;;;;;;18.23;74.71;95925.94;5006390;28;20049;-70
2023/11/03 10:50:51;;;;;;;1.80;1.80;;;;;;;18.90;73.19;95975.13;5004611;28;20646;-72
2023/11/03 10:53:21;;;;;;;1.80;1.80;;;;;;;19.28;70.91;95933.75;5005825;28;20050;-59
2023/11/03 10:55:54;;;;;;;1.70;1.70;;;;;;;19.16;71.41;95930.94;5006340;28;20133;-59
2023/11/03 10:58:21;;;;;;;1.90;1.90;;;;;;;19.72;68.83;95931.00;5014775;28;20046;-71
2023/11/03 11:01:13;;;;;;;1.83;1.83;;;;;;;20.03;67.13;95929.06;5026104;28;20067;-71
2023/11/03 11:03:53;;;;;;;1.98;1.98;;;;;;;19.96;66.38;95918.06;5010722;28;20061;-59
2023/11/03 11:06:34;;;;;;;2.00;2.00;;;;;;;19.44;69.33;95908.31;5005692;28;20575;-70
2023/11/03 11:09:06;;;;;;;1.90;1.90;;;;;;;20.08;67.24;95889.88;5004676;28;20041;-59
2023/11/03 11:11:33;;;;;;;1.80;1.80;;;;;;;20.58;65.32;95888.72;5006221;28;20050;-60
2023/11/03 11:14:24;;;;;;;1.90;1.90;;;;;;;20.53;64.28;95903.41;5005844;28;20089;-61
2023/11/03 11:16:55;;;;;;;1.95;1.95;;;;;;;20.29;65.11;95899.53;5003633;28;20156;-68
2023/11/03 11:19:35;;;;;;;2.47;2.38;;;;;;;20.59;63.61;95891.06;5005993;28;20085;-59
2023/11/03 11:22:03;;;;;;;2.10;2.10;;;;;;;21.07;62.33;95881.03;5005872;28;20064;-69
2023/11/03 11:24:30;;;;;;;1.80;1.80;;;;;;;21.02;62.50;95884.50;5005520;28;20127;-71
2023/11/03 11:27:15;;;;;;;2.10;2.10;;;;;;;20.82;62.76;95870.81;5004372;28;20068;-59
2023/11/03 11:29:42;;;;;;;2.42;2.33;;;;;;;20.70;62.20;95790.13;5005351;28;20050;-64
2023/11/03 11:32:11;;;;;;;2.08;2.08;;;;;;;21.40;61.31;95853.88;4994739;28;20141;-68
2023/11/03 11:34:40;;;;;;;2.22;2.22;;;;;;;21.68;60.20;95849.75;5004101;28;20054;-67
2023/11/03 11:37:25;;;;;;;2.53;2.42;;;;;;;21.91;59.67;95849.13;4987608;28;20061;-58